Time;durP1;ratioP1;P1;durP2;ratioP2;P2;SDS_P1;SDS_P2;PMS_P1;PMS_P2;Temp;Humidity;BMP_temperature;BMP_pressure;BME280_temperature;BME280_humidity;BME280_pressure;Samples;Min_cycle;Max_cycle;Signal;HPM_P1;HPM_P2
2023/01/26 00:01:54;;;;;;;56.30;20.42;;;0.50;99.90;;;;;;6206745;23;20013;-81
2023/01/26 00:04:20;;;;;;;49.95;18.92;;;0.50;99.90;;;;;;6208444;23;20082;-81
2023/01/26 00:06:46;;;;;;;56.15;20.30;;;0.20;99.90;;;;;;6207534;23;20095;-83
2023/01/26 00:09:15;;;;;;;53.67;19.55;;;0.10;99.90;;;;;;6212095;23;20024;-82
2023/01/26 00:11:41;;;;;;;46.85;19.10;;;0.10;99.90;;;;;;6210760;23;20013;-82
2023/01/26 00:14:07;;;;;;;54.47;19.90;;;0.70;99.90;;;;;;6210559;23;20318;-84
2023/01/26 00:16:32;;;;;;;51.80;19.67;;;0.60;99.90;;;;;;6210608;23;20039;-82
2023/01/26 00:22:26;;;;;;;48.15;18.73;;;0.30;99.90;;;;;;6210179;23;20075;-81
2023/01/26 00:24:52;;;;;;;50.92;20.00;;;0.40;99.90;;;;;;6211106;23;20197;-82
2023/01/26 00:27:17;;;;;;;56.35;20.80;;;0.70;99.90;;;;;;6210670;23;20019;-81
2023/01/26 00:29:43;;;;;;;54.38;20.67;;;0.10;99.90;;;;;;6185963;23;20107;-81
2023/01/26 00:32:09;;;;;;;47.42;19.05;;;0.60;99.90;;;;;;6211140;23;20017;-83
2023/01/26 00:34:34;;;;;;;46.20;18.55;;;0.20;99.90;;;;;;6210095;23;20088;-82
2023/01/26 00:37:00;;;;;;;57.30;21.02;;;0.50;99.90;;;;;;6208036;23;20048;-79
2023/01/26 00:39:26;;;;;;;58.00;21.52;;;0.60;99.90;;;;;;6209109;23;20087;-79
2023/01/26 00:42:08;;;;;;;57.63;21.08;;;0.40;99.90;;;;;;6211571;23;20424;-83
2023/01/26 00:44:37;;;;;;;55.38;21.08;;;0.20;99.90;;;;;;6209742;23;20013;-81
2023/01/26 00:47:04;;;;;;;58.60;21.48;;;0.80;99.90;;;;;;6209639;23;20019;-80
2023/01/26 00:49:30;;;;;;;54.70;21.33;;;0.30;99.90;;;;;;6214301;23;20064;-83
2023/01/26 00:51:56;;;;;;;55.30;20.00;;;0.30;99.90;;;;;;6216285;23;20048;-81
2023/01/26 00:54:21;;;;;;;53.08;20.83;;;0.50;99.90;;;;;;6220223;23;20051;-83
2023/01/26 00:56:47;;;;;;;60.75;21.75;;;0.60;99.90;;;;;;6215272;23;20031;-83
2023/01/26 00:59:13;;;;;;;57.75;19.77;;;0.70;99.90;;;;;;6214308;23;20442;-81
2023/01/26 01:01:38;;;;;;;55.70;20.17;;;0.30;99.90;;;;;;6215138;23;20016;-80
2023/01/26 01:04:04;;;;;;;51.75;20.30;;;0.70;99.90;;;;;;6214957;23;20012;-83
2023/01/26 01:06:30;;;;;;;51.65;20.20;;;0.20;99.90;;;;;;6189295;23;20071;-81
2023/01/26 01:08:56;;;;;;;53.03;19.95;;;0.70;99.90;;;;;;6190198;23;20039;-81
2023/01/26 01:11:21;;;;;;;53.60;20.00;;;0.20;99.90;;;;;;6190296;23;20055;-80
2023/01/26 01:13:47;;;;;;;52.28;19.63;;;0.80;99.90;;;;;;6190474;23;20027;-82
2023/01/26 01:16:15;;;;;;;52.95;20.35;;;0.30;99.90;;;;;;6214753;23;20470;-80
2023/01/26 01:18:41;;;;;;;52.40;19.98;;;0.30;99.90;;;;;;6216538;23;20043;-80
2023/01/26 01:21:09;;;;;;;50.95;19.30;;;0.30;99.90;;;;;;6221997;23;20074;-83
2023/01/26 01:23:34;;;;;;;53.58;19.13;;;0.40;99.90;;;;;;6215500;23;20078;-82
2023/01/26 01:26:00;;;;;;;55.00;20.00;;;0.40;99.90;;;;;;6190311;23;20008;-80
2023/01/26 01:28:26;;;;;;;52.40;19.95;;;0.30;99.90;;;;;;6214798;23;20413;-78
2023/01/26 01:30:52;;;;;;;55.33;20.15;;;0.60;99.90;;;;;;6215776;23;20016;-83
2023/01/26 01:33:18;;;;;;;51.78;19.05;;;0.80;99.90;;;;;;6193274;23;20023;-80
2023/01/26 01:35:54;;;;;;;67.25;20.30;;;0.30;99.90;;;;;;6189814;23;20066;-80
2023/01/26 01:38:19;;;;;;;51.35;18.70;;;0.30;99.90;;;;;;6188882;23;20432;-81
2023/01/26 01:40:45;;;;;;;51.35;18.45;;;0.70;99.90;;;;;;6189980;23;20494;-81
2023/01/26 01:43:11;;;;;;;51.35;18.30;;;0.50;99.90;;;;;;6190518;23;20008;-82
2023/01/26 01:45:47;;;;;;;50.97;18.95;;;0.60;99.90;;;;;;6215237;23;20061;-83
2023/01/26 01:48:52;;;;;;;52.10;18.63;;;0.70;99.90;;;;;;6216568;23;20016;-81
2023/01/26 01:51:26;;;;;;;44.40;17.65;;;0.90;99.90;;;;;;6214344;23;20020;-81
2023/01/26 01:53:55;;;;;;;44.78;16.88;;;0.80;99.90;;;;;;6188267;23;20020;-82
2023/01/26 01:56:25;;;;;;;44.47;16.98;;;0.30;99.90;;;;;;6239007;23;20109;-83
2023/01/26 01:58:54;;;;;;;46.58;17.23;;;0.40;99.90;;;;;;6189475;23;20016;-83
2023/01/26 02:01:20;;;;;;;46.67;17.30;;;0.90;99.90;;;;;;6189511;23;20012;-81
2023/01/26 02:03:48;;;;;;;45.47;17.48;;;0.70;99.90;;;;;;6214327;23;20012;-82
2023/01/26 02:06:19;;;;;;;49.58;16.75;;;0.30;99.90;;;;;;6188233;23;20019;-81
2023/01/26 02:08:49;;;;;;;45.40;17.55;;;0.90;99.90;;;;;;6212420;23;20131;-82
2023/01/26 02:11:40;;;;;;;46.97;16.98;;;0.60;99.90;;;;;;6187202;23;20016;-79
2023/01/26 02:14:10;;;;;;;42.45;16.55;;;0.40;99.90;;;;;;6213351;23;20023;-79
2023/01/26 02:16:38;;;;;;;45.70;16.95;;;0.70;99.90;;;;;;6213652;23;20051;-80
2023/01/26 02:19:08;;;;;;;45.30;16.65;;;0.60;99.90;;;;;;6215213;23;20020;-81
2023/01/26 02:21:33;;;;;;;46.67;17.35;;;0.40;99.90;;;;;;6189424;23;20459;-81
2023/01/26 02:24:15;;;;;;;44.13;16.58;;;0.90;99.90;;;;;;6214122;23;20174;-82
2023/01/26 02:26:42;;;;;;;39.58;16.20;;;0.40;99.90;;;;;;6189594;23;20019;-79
2023/01/26 02:29:10;;;;;;;39.67;16.27;;;1.00;99.90;;;;;;6216215;23;20008;-81
2023/01/26 02:31:37;;;;;;;39.40;15.20;;;0.80;99.90;;;;;;6190985;23;20012;-81
2023/01/26 02:34:23;;;;;;;49.70;17.45;;;0.90;99.90;;;;;;6189824;23;20016;-81
2023/01/26 02:36:59;;;;;;;45.95;16.15;;;0.40;99.90;;;;;;6213437;23;20044;-80
2023/01/26 02:39:34;;;;;;;45.70;16.63;;;0.50;99.90;;;;;;6214101;23;20016;-82
2023/01/26 02:44:44;;;;;;;45.25;17.05;;;0.70;99.90;;;;;;6214300;23;20024;-80
2023/01/26 02:47:15;;;;;;;48.50;16.60;;;1.00;99.90;;;;;;6214647;23;20466;-81
2023/01/26 02:49:49;;;;;;;45.90;16.90;;;0.60;99.90;;;;;;6215462;23;20073;-83
2023/01/26 02:52:17;;;;;;;44.35;17.25;;;0.50;99.90;;;;;;6189898;23;20272;-82
2023/01/26 02:57:28;;;;;;;40.75;15.93;;;1.00;99.90;;;;;;6214398;23;20019;-81
2023/01/26 02:59:54;;;;;;;42.15;15.82;;;0.50;99.90;;;;;;6188933;23;20274;-82
2023/01/26 03:02:20;;;;;;;49.83;16.70;;;0.70;99.90;;;;;;6188156;23;20066;-81
2023/01/26 03:04:45;;;;;;;46.03;17.60;;;0.50;99.90;;;;;;6212747;23;20004;-80
2023/01/26 03:07:11;;;;;;;43.35;16.67;;;0.60;99.90;;;;;;6214121;23;20332;-83
2023/01/26 03:09:37;;;;;;;48.63;17.65;;;0.60;99.90;;;;;;6188954;23;20078;-82
2023/01/26 03:12:03;;;;;;;47.92;17.10;;;0.90;99.90;;;;;;6188749;23;20016;-80
2023/01/26 03:14:29;;;;;;;51.40;16.98;;;0.60;99.90;;;;;;6214093;23;20012;-82
2023/01/26 03:16:54;;;;;;;58.53;17.70;;;1.00;99.90;;;;;;6213733;23;20317;-83
2023/01/26 03:27:39;;;;;;;48.97;17.23;;;0.70;99.90;;;;;;6213882;23;20427;-79
2023/01/26 03:30:05;;;;;;;41.53;15.68;;;1.10;99.90;;;;;;6215375;23;20023;-81
2023/01/26 03:32:32;;;;;;;43.40;17.58;;;0.90;99.90;;;;;;6190333;23;20079;-81
2023/01/26 03:35:21;;;;;;;47.28;17.33;;;1.20;99.90;;;;;;6215002;23;20745;-84
2023/01/26 03:37:53;;;;;;;43.85;16.27;;;1.10;99.90;;;;;;6189719;23;20024;-81
2023/01/26 03:56:50;;;;;;;52.47;17.48;;;1.20;99.90;;;;;;6215860;23;20094;-81
2023/01/26 03:59:16;;;;;;;45.95;16.42;;;1.30;99.90;;;;;;6189919;23;20012;-80
2023/01/26 04:09:57;;;;;;;49.53;17.05;;;1.30;99.90;;;;;;6213715;23;20094;-82
2023/01/26 04:12:23;;;;;;;46.40;16.90;;;0.80;99.90;;;;;;6190885;23;20016;-80
2023/01/26 04:23:01;;;;;;;46.55;16.23;;;0.80;99.90;;;;;;6215047;23;20027;-82
2023/01/26 04:25:26;;;;;;;48.40;17.20;;;0.80;99.90;;;;;;6190613;23;20016;-81
2023/01/26 04:27:52;;;;;;;54.03;17.83;;;1.40;99.90;;;;;;6190392;23;20016;-83
2023/01/26 04:30:18;;;;;;;65.43;18.00;;;0.90;99.90;;;;;;6190194;23;20012;-82
2023/01/26 04:32:45;;;;;;;74.00;18.67;;;0.90;99.90;;;;;;6190034;23;20016;-82
2023/01/26 04:35:10;;;;;;;50.72;17.88;;;1.30;99.90;;;;;;6190683;23;20012;-80
2023/01/26 04:37:37;;;;;;;63.83;18.33;;;0.80;99.90;;;;;;6190767;23;20090;-82
2023/01/26 04:40:04;;;;;;;64.45;18.35;;;1.30;99.90;;;;;;6191640;23;20020;-82
2023/01/26 04:42:30;;;;;;;52.90;18.50;;;1.40;99.90;;;;;;6191574;23;20078;-81
2023/01/26 04:44:56;;;;;;;55.30;18.48;;;0.90;99.90;;;;;;6191461;23;20016;-81
2023/01/26 04:47:21;;;;;;;66.13;19.80;;;1.20;99.90;;;;;;6216222;23;20012;-79
2023/01/26 04:49:47;;;;;;;57.25;18.85;;;1.40;99.90;;;;;;6191027;23;20008;-80
2023/01/26 04:52:14;;;;;;;72.28;19.55;;;1.10;99.90;;;;;;6192130;23;20070;-82
2023/01/26 04:54:40;;;;;;;68.30;19.98;;;1.10;99.90;;;;;;6190725;23;20012;-80
2023/01/26 04:57:06;;;;;;;69.95;20.60;;;1.00;99.90;;;;;;6191966;23;20023;-81
2023/01/26 04:59:32;;;;;;;66.97;20.92;;;1.40;99.90;;;;;;6190620;23;20004;-81
2023/01/26 05:01:58;;;;;;;64.43;20.52;;;1.50;99.90;;;;;;6215655;23;20069;-82
2023/01/26 05:04:23;;;;;;;80.78;21.17;;;1.20;99.90;;;;;;6216150;23;20012;-81
2023/01/26 05:06:49;;;;;;;64.03;20.00;;;1.70;99.90;;;;;;6190678;23;20008;-81
2023/01/26 05:09:15;;;;;;;62.35;20.15;;;1.10;99.90;;;;;;6194480;23;20024;-79
2023/01/26 05:11:40;;;;;;;54.25;19.45;;;1.50;99.90;;;;;;6216334;23;20452;-81
2023/01/26 05:14:06;;;;;;;61.80;20.25;;;1.40;99.90;;;;;;6191871;23;20020;-82
2023/01/26 05:16:32;;;;;;;67.38;20.58;;;1.10;99.90;;;;;;6190858;23;20091;-79
2023/01/26 05:19:21;;;;;;;90.20;21.10;;;1.30;99.90;;;;;;6216837;23;20462;-81
2023/01/26 05:21:47;;;;;;;60.47;19.52;;;1.50;99.90;;;;;;6216127;23;20024;-80
2023/01/26 05:24:13;;;;;;;76.18;22.10;;;1.40;99.90;;;;;;6214630;23;20046;-81
2023/01/26 05:26:38;;;;;;;77.82;20.50;;;1.20;99.90;;;;;;6191382;23;20008;-81
2023/01/26 05:29:04;;;;;;;72.93;20.50;;;1.70;99.90;;;;;;6190032;23;20008;-80
2023/01/26 05:31:29;;;;;;;67.13;20.77;;;1.30;99.90;;;;;;6214469;23;20012;-80
2023/01/26 05:33:55;;;;;;;63.42;20.30;;;1.40;99.90;;;;;;6188994;23;20012;-80
2023/01/26 05:36:21;;;;;;;63.22;20.33;;;1.80;99.90;;;;;;6188288;23;20036;-80
2023/01/26 05:38:46;;;;;;;72.05;21.25;;;1.50;99.90;;;;;;6213155;23;20012;-80
2023/01/26 05:41:12;;;;;;;84.20;21.25;;;1.40;99.90;;;;;;6190009;23;20019;-81
2023/01/26 05:43:38;;;;;;;68.88;20.00;;;1.50;99.90;;;;;;6189205;23;20062;-80
2023/01/26 05:46:04;;;;;;;78.32;20.48;;;1.40;99.90;;;;;;6187670;23;20019;-80
2023/01/26 05:48:30;;;;;;;77.25;20.52;;;1.90;99.90;;;;;;6189781;23;20008;-80
2023/01/26 05:50:56;;;;;;;88.72;22.40;;;1.80;99.90;;;;;;6209265;23;20411;-79
2023/01/26 05:53:22;;;;;;;78.07;20.40;;;1.70;99.90;;;;;;6208472;23;20374;-80
2023/01/26 05:55:48;;;;;;;67.97;18.70;;;1.60;99.90;;;;;;6183980;23;20074;-80
2023/01/26 05:58:13;;;;;;;65.28;18.50;;;1.90;99.90;;;;;;6209257;23;20027;-81
2023/01/26 06:00:39;;;;;;;65.50;18.98;;;1.80;99.90;;;;;;6209585;23;20386;-80
2023/01/26 06:03:04;;;;;;;62.60;17.80;;;1.40;99.90;;;;;;6209749;23;20016;-81
2023/01/26 06:05:30;;;;;;;77.15;18.40;;;1.90;99.90;;;;;;6209859;23;20402;-82
2023/01/26 06:07:56;;;;;;;75.78;19.05;;;1.60;99.90;;;;;;6206636;23;20476;-82
2023/01/26 06:10:21;;;;;;;65.88;17.75;;;1.40;99.90;;;;;;6209412;23;20019;-79
2023/01/26 06:12:47;;;;;;;71.13;18.83;;;1.70;99.90;;;;;;6183440;23;20052;-81
2023/01/26 06:15:13;;;;;;;72.35;19.67;;;1.70;99.90;;;;;;6208075;23;20024;-80
2023/01/26 06:17:39;;;;;;;52.88;17.05;;;1.40;99.90;;;;;;6181000;23;20515;-82
2023/01/26 06:20:06;;;;;;;54.10;16.17;;;1.30;99.90;;;;;;6209679;23;20091;-80
2023/01/26 06:22:31;;;;;;;84.82;19.25;;;1.60;99.90;;;;;;6209019;23;20344;-80
2023/01/26 06:24:57;;;;;;;49.80;15.63;;;1.50;99.90;;;;;;6209667;23;20044;-82
2023/01/26 06:27:23;;;;;;;53.25;15.60;;;1.20;99.90;;;;;;6209283;23;20009;-79
2023/01/26 06:29:48;;;;;;;69.78;17.48;;;1.70;99.90;;;;;;6215158;23;20021;-81
2023/01/26 06:32:14;;;;;;;47.97;15.38;;;1.20;99.90;;;;;;6208523;23;20019;-80
2023/01/26 06:34:40;;;;;;;53.88;15.85;;;1.20;99.90;;;;;;6183336;23;20106;-80
2023/01/26 06:37:06;;;;;;;56.50;15.55;;;1.20;99.90;;;;;;6209226;23;20008;-80
2023/01/26 06:39:32;;;;;;;50.13;16.23;;;1.50;99.90;;;;;;6208987;23;20012;-80
2023/01/26 06:41:58;;;;;;;49.88;15.55;;;1.80;99.90;;;;;;6208407;23;20019;-81
2023/01/26 06:44:23;;;;;;;48.70;15.07;;;1.60;99.90;;;;;;6209163;23;20099;-80
2023/01/26 06:46:49;;;;;;;51.97;15.82;;;1.60;99.90;;;;;;6209847;23;20012;-81
2023/01/26 06:50:00;;;;;;;44.08;14.55;;;1.50;99.90;;;;;;6210181;23;20058;-79
2023/01/26 06:52:35;;;;;;;113.05;21.60;;;1.60;99.90;;;;;;6208769;23;20021;-82
2023/01/26 06:55:02;;;;;;;;;;;2.30;99.90;;;;;;6210543;23;20032;-81
2023/01/26 06:57:27;;;;;;;122.45;21.17;;;2.70;99.90;;;;;;6223403;23;20251;-80
2023/01/26 06:59:54;;;;;;;101.30;20.70;;;2.90;99.90;;;;;;6209484;23;20012;-78
2023/01/26 07:02:21;;;;;;;134.52;21.67;;;2.60;99.90;;;;;;6208774;23;20062;-83
2023/01/26 07:04:47;;;;;;;112.05;19.48;;;2.60;99.90;;;;;;6211791;23;20012;-81
2023/01/26 07:07:13;;;;;;;102.22;18.38;;;2.50;99.90;;;;;;6210866;23;20015;-79
2023/01/26 07:09:39;;;;;;;125.07;18.25;;;2.20;99.90;;;;;;6211659;23;20324;-81
2023/01/26 07:12:05;;;;;;;110.30;17.08;;;2.30;99.90;;;;;;6210048;23;20019;-82
2023/01/26 07:14:34;;;;;;;111.22;17.50;;;2.50;99.90;;;;;;6211291;23;20008;-85
2023/01/26 07:17:00;;;;;;;128.18;16.48;;;2.70;99.90;;;;;;6187327;23;20026;-85
2023/01/26 07:19:51;;;;;;;105.68;15.57;;;2.60;99.90;;;;;;6188063;23;20012;-85
2023/01/26 07:22:16;;;;;;;99.60;14.85;;;2.80;99.90;;;;;;6212517;23;20325;-82
2023/01/26 07:24:42;;;;;;;101.60;15.70;;;2.80;99.90;;;;;;6211333;23;20220;-84
2023/01/26 07:27:07;;;;;;;92.55;11.88;;;2.50;99.90;;;;;;6211166;23;20009;-83
2023/01/26 07:29:33;;;;;;;83.18;12.40;;;2.90;99.90;;;;;;6210378;23;20013;-86
2023/01/26 07:31:59;;;;;;;87.63;11.90;;;3.00;99.90;;;;;;6210702;23;20020;-81
2023/01/26 07:34:55;;;;;;;91.60;12.07;;;2.80;99.90;;;;;;6210949;23;20078;-82
2023/01/26 07:37:21;;;;;;;90.00;12.35;;;2.90;99.90;;;;;;6212788;23;20008;-83
2023/01/26 07:39:47;;;;;;;81.53;10.63;;;3.00;99.90;;;;;;6210012;23;20308;-83
2023/01/26 07:42:14;;;;;;;87.50;10.23;;;3.00;99.90;;;;;;6211143;23;20043;-80
2023/01/26 07:44:39;;;;;;;109.88;10.93;;;3.10;99.90;;;;;;6209487;23;20117;-83
2023/01/26 07:47:05;;;;;;;86.13;10.55;;;3.50;99.90;;;;;;6183887;23;20046;-82
2023/01/26 07:49:31;;;;;;;75.90;9.40;;;3.40;99.90;;;;;;6208334;23;20017;-81
2023/01/26 07:51:56;;;;;;;67.35;9.27;;;3.30;99.90;;;;;;6182549;23;20032;-84
2023/01/26 07:54:25;;;;;;;64.30;9.00;;;3.50;99.90;;;;;;6233791;23;20095;-85
2023/01/26 07:56:53;;;;;;;75.35;9.20;;;3.40;99.90;;;;;;6208410;23;20023;-79
2023/01/26 07:59:20;;;;;;;79.85;8.13;;;3.40;99.90;;;;;;6185130;23;20035;-82
2023/01/26 08:01:47;;;;;;;88.85;7.88;;;3.30;99.90;;;;;;6184367;23;20111;-82
2023/01/26 08:04:13;;;;;;;68.35;7.50;;;3.40;99.90;;;;;;6207011;23;20020;-83
2023/01/26 08:06:39;;;;;;;63.17;6.75;;;3.00;99.90;;;;;;6182624;23;20502;-80
2023/01/26 08:09:05;;;;;;;76.22;7.40;;;3.40;99.90;;;;;;6182775;23;20108;-80
2023/01/26 08:11:30;;;;;;;60.47;6.78;;;3.00;99.90;;;;;;6206736;23;20020;-83
2023/01/26 08:13:56;;;;;;;78.88;7.57;;;3.50;99.90;;;;;;6183214;23;20020;-81
2023/01/26 08:16:22;;;;;;;77.00;7.15;;;3.20;99.90;;;;;;6206211;23;20019;-82
2023/01/26 08:18:47;;;;;;;68.18;7.53;;;3.10;99.90;;;;;;6208379;23;20099;-80
2023/01/26 08:21:15;;;;;;;61.70;8.35;;;3.20;99.90;;;;;;6186272;23;20024;-81
2023/01/26 08:23:40;;;;;;;75.90;9.20;;;2.90;99.90;;;;;;6181546;23;20363;-79
2023/01/26 08:26:09;;;;;;;69.75;9.85;;;3.30;99.90;;;;;;6206053;23;20098;-80
2023/01/26 08:28:35;;;;;;;80.00;11.48;;;3.10;99.90;;;;;;6184407;23;20548;-80
2023/01/26 08:31:06;;;;;;;84.90;9.98;;;2.90;99.90;;;;;;6208554;23;20012;-81
2023/01/26 08:33:33;;;;;;;69.30;8.80;;;3.00;99.90;;;;;;6182919;23;20012;-82
2023/01/26 08:36:03;;;;;;;68.53;9.95;;;2.90;99.90;;;;;;6159385;23;20095;-81
2023/01/26 08:38:31;;;;;;;67.57;8.20;;;3.10;99.90;;;;;;6187221;23;20475;-82
2023/01/26 08:40:58;;;;;;;66.32;7.78;;;3.10;99.90;;;;;;6183554;23;20016;-81
2023/01/26 08:43:24;;;;;;;67.35;7.85;;;3.10;99.90;;;;;;6209213;23;20123;-84
2023/01/26 08:45:49;;;;;;;63.60;7.03;;;3.40;99.90;;;;;;6206962;23;20102;-81
2023/01/26 08:48:15;;;;;;;54.90;7.45;;;3.60;99.90;;;;;;6181315;23;20861;-81
2023/01/26 08:50:41;;;;;;;73.47;7.70;;;3.30;99.90;;;;;;6210252;23;20055;-82
2023/01/26 08:53:07;;;;;;;77.18;7.75;;;3.50;99.90;;;;;;6185880;23;20031;-82
2023/01/26 08:55:34;;;;;;;72.60;6.80;;;3.70;99.90;;;;;;6186475;23;20031;-80
2023/01/26 08:58:00;;;;;;;58.67;6.40;;;3.50;99.90;;;;;;6186978;23;20071;-82
2023/01/26 09:00:26;;;;;;;68.15;6.90;;;3.50;99.90;;;;;;6211138;23;20393;-82
2023/01/26 09:03:03;;;;;;;70.00;6.95;;;3.80;99.90;;;;;;6186441;23;20017;-82
2023/01/26 09:05:34;;;;;;;62.72;5.93;;;3.90;99.90;;;;;;6211194;23;20071;-82
2023/01/26 09:08:00;;;;;;;64.18;5.88;;;3.60;99.90;;;;;;6186915;23;20008;-81
2023/01/26 09:10:26;;;;;;;57.92;5.90;;;3.60;99.90;;;;;;6212026;23;20398;-82
2023/01/26 09:12:52;;;;;;;58.65;5.80;;;4.10;99.90;;;;;;6186280;23;20051;-82
2023/01/26 09:15:17;;;;;;;64.55;6.15;;;3.90;99.90;;;;;;6185772;23;20078;-82
2023/01/26 09:17:43;;;;;;;61.80;6.07;;;3.90;99.90;;;;;;6210558;23;20074;-86
2023/01/26 09:20:13;;;;;;;59.92;6.63;;;4.30;99.90;;;;;;6182973;23;20318;-81
2023/01/26 09:22:41;;;;;;;64.35;8.55;;;4.40;99.90;;;;;;6183347;23;20024;-83
2023/01/26 09:25:08;;;;;;;63.10;8.88;;;4.20;99.90;;;;;;6209351;23;20008;-81
2023/01/26 09:27:34;;;;;;;69.13;9.00;;;4.60;99.90;;;;;;6186193;23;20046;-82
2023/01/26 09:30:00;;;;;;;49.55;6.00;;;4.30;99.90;;;;;;6185734;23;20013;-81
2023/01/26 09:32:37;;;;;;;62.65;7.53;;;4.50;99.90;;;;;;6208546;23;20014;-81
2023/01/26 09:35:10;;;;;;;53.42;6.63;;;4.20;99.90;;;;;;6181721;23;20023;-83
2023/01/26 09:37:53;;;;;;;57.65;6.10;;;4.80;99.90;;;;;;6181690;23;20099;-82
2023/01/26 09:40:33;;;;;;;59.45;5.85;;;5.00;99.90;;;;;;6183334;23;20012;-80
2023/01/26 09:43:17;;;;;;;56.28;5.35;;;4.70;99.90;;;;;;6210255;23;20119;-82
2023/01/26 09:45:57;;;;;;;71.38;5.75;;;5.40;99.90;;;;;;6210563;23;20013;-82
2023/01/26 09:48:31;;;;;;;57.65;5.43;;;5.50;99.90;;;;;;6208582;23;20016;-81
2023/01/26 09:55:03;;;;;;;64.88;6.80;;;5.70;99.90;;;;;;6183047;23;20285;-82
2023/01/26 09:57:49;;;;;;;58.30;5.50;;;5.20;99.90;;;;;;6207940;23;20020;-81
2023/01/26 10:00:26;;;;;;;49.30;5.30;;;5.80;99.90;;;;;;6181999;23;20095;-81
2023/01/26 10:03:12;;;;;;;43.30;5.25;;;6.00;99.90;;;;;;6183080;23;20031;-82
2023/01/26 10:06:02;;;;;;;55.13;5.60;;;6.10;99.90;;;;;;6208182;23;20291;-82
2023/01/26 10:08:37;;;;;;;40.40;4.82;;;6.20;99.90;;;;;;6181758;23;20082;-81
2023/01/26 10:11:12;;;;;;;47.83;5.38;;;6.00;99.90;;;;;;6206541;23;20055;-82
2023/01/26 10:13:38;;;;;;;;;;;6.20;99.90;;;;;;6207998;23;20149;-82
2023/01/26 10:16:08;;;;;;;60.00;5.35;;;6.30;99.90;;;;;;6154879;23;19926;-81
2023/01/26 10:19:11;;;;;;;40.45;5.13;;;6.40;99.90;;;;;;6180126;23;20066;-82
2023/01/26 10:21:43;;;;;;;44.70;5.50;;;6.60;99.90;;;;;;6209038;23;20332;-83
2023/01/26 10:24:10;;;;;;;50.85;5.43;;;6.60;99.90;;;;;;6183027;23;20346;-84
2023/01/26 10:26:36;;;;;;;43.47;4.80;;;6.70;99.90;;;;;;6207914;23;20074;-83
2023/01/26 10:29:03;;;;;;;48.50;5.63;;;6.70;99.90;;;;;;6158909;23;20012;-84
2023/01/26 10:31:33;;;;;;;48.35;5.43;;;6.40;99.90;;;;;;6182016;23;20631;-83
2023/01/26 10:34:17;;;;;;;47.10;5.30;;;6.30;99.90;;;;;;6206386;23;20016;-82
2023/01/26 10:36:46;;;;;;;50.67;6.18;;;6.70;99.90;;;;;;6207622;23;20159;-82
2023/01/26 10:39:16;;;;;;;47.72;5.07;;;6.60;99.90;;;;;;6159050;23;20016;-82
2023/01/26 10:41:56;;;;;;;45.00;5.97;;;6.60;99.90;;;;;;6209146;23;20020;-82
2023/01/26 10:44:35;;;;;;;40.58;4.85;;;6.50;99.90;;;;;;6210818;23;20051;-82
2023/01/26 10:47:16;;;;;;;43.63;5.10;;;6.70;99.90;;;;;;6184605;23;20124;-83
2023/01/26 10:49:42;;;;;;;41.03;5.47;;;7.00;99.90;;;;;;6209882;23;20027;-83
2023/01/26 10:52:23;;;;;;;42.25;4.22;;;6.70;99.90;;;;;;6182789;23;20009;-81
2023/01/26 10:55:08;;;;;;;42.83;4.75;;;6.80;99.90;;;;;;6209932;23;20349;-80
2023/01/26 10:57:37;;;;;;;42.45;4.78;;;7.30;99.90;;;;;;6184854;23;20047;-81
2023/01/26 11:00:06;;;;;;;42.30;5.20;;;7.00;99.90;;;;;;6184383;23;20020;-82
2023/01/26 11:02:34;;;;;;;40.75;4.45;;;7.00;99.90;;;;;;6183100;23;20093;-82
2023/01/26 11:09:50;;;;;;;32.42;3.97;;;7.10;99.90;;;;;;6182783;23;20024;-83
2023/01/26 11:12:24;;;;;;;41.38;4.18;;;7.10;99.90;;;;;;6180014;23;20048;-82
2023/01/26 11:15:17;;;;;;;29.63;4.07;;;7.20;99.90;;;;;;6183295;23;20111;-82
2023/01/26 11:17:49;;;;;;;40.45;3.97;;;7.30;99.90;;;;;;6181093;23;20337;-82
2023/01/26 11:20:46;;;;;;;34.83;3.92;;;7.20;99.90;;;;;;6183037;23;20415;-83
2023/01/26 11:23:53;;;;;;;27.73;3.90;;;7.20;99.90;;;;;;6182551;23;20650;-82
2023/01/26 11:26:41;;;;;;;28.52;3.42;;;7.50;99.90;;;;;;6185913;23;20017;-82
2023/01/26 11:29:22;;;;;;;27.63;3.58;;;7.60;99.90;;;;;;6188946;23;20139;-82
2023/01/26 11:32:22;;;;;;;29.67;4.13;;;7.50;99.90;;;;;;6190326;23;20100;-83
2023/01/26 11:35:08;;;;;;;24.50;3.28;;;7.40;99.90;;;;;;6181277;23;20012;-82
2023/01/26 11:38:12;;;;;;;30.05;3.75;;;7.60;99.90;;;;;;6064049;23;20025;-82
2023/01/26 11:40:59;;;;;;;30.27;3.10;;;7.60;99.90;;;;;;6065674;23;20081;-82
2023/01/26 11:44:02;;;;;;;26.95;3.05;;;7.50;99.90;;;;;;6064715;23;20015;-82
2023/01/26 11:47:17;;;;;;;32.03;3.78;;;7.50;99.90;;;;;;6069114;23;20363;-83
2023/01/26 11:49:55;;;;;;;22.23;3.25;;;7.30;99.90;;;;;;6066143;23;20018;-82
2023/01/26 11:52:23;;;;;;;39.20;4.20;;;7.50;99.90;;;;;;6075166;23;20458;-84
2023/01/26 11:55:02;;;;;;;30.73;4.65;;;7.40;99.90;;;;;;6071996;23;20065;-84
2023/01/26 11:57:48;;;;;;;35.72;3.25;;;7.50;99.90;;;;;;6093387;23;20450;-83
2023/01/26 12:00:22;;;;;;;36.58;3.92;;;7.60;99.90;;;;;;6073662;23;20080;-85
2023/01/26 12:03:07;;;;;;;30.20;3.97;;;7.60;99.90;;;;;;6093957;23;20169;-82
2023/01/26 12:06:16;;;;;;;31.83;4.40;;;7.60;99.90;;;;;;6092055;23;20021;-82
2023/01/26 12:08:47;;;;;;;33.55;4.32;;;7.30;99.90;;;;;;6083369;23;20445;-83
2023/01/26 12:11:24;;;;;;;31.13;4.35;;;7.70;99.90;;;;;;6071325;23;20025;-83
2023/01/26 12:14:04;;;;;;;29.25;3.75;;;7.40;99.90;;;;;;6111767;23;20165;-83
2023/01/26 12:16:39;;;;;;;31.63;4.00;;;7.60;99.90;;;;;;6212488;23;20345;-82
2023/01/26 12:19:30;;;;;;;20.98;2.90;;;7.40;99.90;;;;;;6212731;23;20091;-85
2023/01/26 12:22:08;;;;;;;32.53;3.28;;;7.50;99.90;;;;;;6212916;23;20033;-85
2023/01/26 12:24:40;;;;;;;24.80;3.42;;;7.40;99.90;;;;;;6212163;23;20012;-83
2023/01/26 12:27:15;;;;;;;31.33;4.22;;;7.40;99.90;;;;;;6212409;23;20047;-86
2023/01/26 12:29:51;;;;;;;26.70;3.50;;;7.50;99.90;;;;;;6212045;23;20015;-85
2023/01/26 12:32:16;;;;;;;34.15;3.47;;;7.60;99.90;;;;;;6187073;23;20008;-85
2023/01/26 12:34:42;;;;;;;26.55;3.50;;;7.40;99.90;;;;;;6186519;23;20136;-82
2023/01/26 12:37:58;;;;;;;19.17;2.88;;;7.30;99.90;;;;;;6209429;23;20104;-84
2023/01/26 12:40:56;;;;;;;21.90;2.97;;;7.40;99.90;;;;;;6211770;23;20258;-84
2023/01/26 12:43:52;;;;;;;19.60;2.85;;;7.30;99.90;;;;;;6158320;23;20012;-84
2023/01/26 12:46:20;;;;;;;21.30;2.47;;;7.20;99.90;;;;;;6208727;23;20016;-85
2023/01/26 12:48:52;;;;;;;22.05;2.58;;;7.40;99.90;;;;;;6184807;23;20135;-87
2023/01/26 12:51:27;;;;;;;16.73;2.50;;;7.40;99.90;;;;;;6184787;23;20188;-85
2023/01/26 12:53:59;;;;;;;20.80;2.33;;;7.30;99.90;;;;;;6209498;23;20028;-85
2023/01/26 12:56:33;;;;;;;16.83;2.13;;;7.50;99.90;;;;;;6184911;23;20095;-86
2023/01/26 12:59:08;;;;;;;22.45;2.33;;;7.30;99.90;;;;;;6184548;23;20409;-87
2023/01/26 13:01:41;;;;;;;20.90;2.63;;;7.40;99.90;;;;;;6184070;23;20017;-87
2023/01/26 13:04:13;;;;;;;18.38;2.25;;;7.30;99.90;;;;;;6185496;23;20016;-86
2023/01/26 13:06:39;;;;;;;17.45;2.30;;;7.30;99.90;;;;;;6209891;23;20036;-86
2023/01/26 13:09:23;;;;;;;18.98;2.53;;;7.50;99.90;;;;;;6184655;23;20051;-84
2023/01/26 13:11:54;;;;;;;19.17;2.53;;;7.40;99.90;;;;;;6209480;23;20508;-86
2023/01/26 13:14:25;;;;;;;22.55;2.90;;;7.50;99.90;;;;;;6209947;23;20436;-86
2023/01/26 13:16:52;;;;;;;19.73;2.45;;;7.50;99.90;;;;;;6208231;23;20016;-83
2023/01/26 13:19:34;;;;;;;27.00;2.67;;;7.30;99.90;;;;;;6209099;23;20091;-83
2023/01/26 13:22:37;;;;;;;22.35;2.45;;;7.50;99.90;;;;;;6184302;23;20096;-82
2023/01/26 13:25:12;;;;;;;23.50;2.50;;;7.40;99.90;;;;;;6092219;23;20028;-82
2023/01/26 13:27:38;;;;;;;25.75;3.15;;;7.20;99.90;;;;;;6068469;23;20056;-82
2023/01/26 13:30:22;;;;;;;22.48;2.67;;;7.20;99.90;;;;;;6066332;23;20458;-82
2023/01/26 13:32:48;;;;;;;25.95;2.45;;;7.20;99.90;;;;;;6066667;23;20045;-82
2023/01/26 13:43:03;;;;;;;20.60;2.60;;;7.20;99.90;;;;;;6117384;23;20911;-84
2023/01/26 13:46:29;;;;;;;21.20;3.33;;;7.30;99.90;;;;;;6092974;23;20021;-83
2023/01/26 13:48:58;;;;;;;26.25;3.67;;;7.10;99.90;;;;;;6007591;23;20015;-82
2023/01/26 13:51:26;;;;;;;26.08;3.30;;;7.10;99.90;;;;;;6008431;23;20026;-81
2023/01/26 13:54:02;;;;;;;23.35;3.03;;;7.00;99.90;;;;;;6005315;23;20490;-82
2023/01/26 13:56:37;;;;;;;25.02;3.35;;;7.10;99.90;;;;;;6008729;23;20391;-83
2023/01/26 13:59:11;;;;;;;23.42;2.83;;;7.20;99.90;;;;;;6065239;23;20442;-83
2023/01/26 14:01:48;;;;;;;27.53;4.17;;;7.10;99.90;;;;;;6100251;23;20013;-83
2023/01/26 14:04:21;;;;;;;23.23;3.17;;;6.90;99.90;;;;;;6098121;23;20017;-83
2023/01/26 14:07:05;;;;;;;23.08;3.13;;;7.20;99.90;;;;;;6124520;23;20017;-82
2023/01/26 14:09:38;;;;;;;21.67;3.97;;;6.90;99.90;;;;;;6097603;23;20013;-83